Terminal Aerodrome Forecast
Issued by NWS

Home | Current Version | Previous Version | Text Only | Print | Product List | Glossary On
Versions: 1 2 3 4 5 6 7 8 9 10 11 12
000
FTUS42 KGSP 202338
TAFGMU
TAF
KGMU 202338Z 2100/2124 VRB03KT P6SM FEW250
     FM210900 01004KT P6SM FEW250
     FM211600 05005KT P6SM FEW050=

USA.gov is the U.S. government's official web portal to all federal, state and local government web resources and services.